Terminal Aerodrome Forecast
Issued by NWS Green Bay, WI

Home | Current Version | Previous Version | Text Only | Print | Product List | Glossary On
Versions: 1 2 3 4 5 6 7 8 9 10 11 12 13 14 15 16 17 18 19 20 21 22 23 24 25 26 27 28 29 30 31 32 33 34
000
FTUS43 KGRB 250218 AAA
TAFGRB
TAF AMD
KGRB 250218Z 2502/2524 04012KT 5SM -RA BR OVC005
      TEMPO 2502/2504 6SM -RA SCT005 OVC010
     FM250400 03012G20KT 5SM -RA BR OVC006
     FM250800 03013G21KT P6SM VCSH SCT006 OVC012
     FM251500 05015G24KT P6SM OVC015
     FM251900 05016G25KT P6SM VCSH SCT009 OVC015
      TEMPO 2521/2524 4SM -RA BR BKN009=

USA.gov is the U.S. government's official web portal to all federal, state and local government web resources and services.